sensor_id;sensor_type;location;lat;lon;timestamp;temperature;humidity
44509;DHT22;30214;52.246;14.408;2023-06-22T00:01:33;19.20;99.90
44509;DHT22;30214;52.246;14.408;2023-06-22T00:04:02;19.10;99.90
44509;DHT22;30214;52.246;14.408;2023-06-22T00:06:31;19.10;99.90
44509;DHT22;30214;52.246;14.408;2023-06-22T00:08:59;19.10;99.90
44509;DHT22;30214;52.246;14.408;2023-06-22T00:11:26;19.10;99.90
44509;DHT22;30214;52.246;14.408;2023-06-22T00:14:02;19.00;99.90
44509;DHT22;30214;52.246;14.408;2023-06-22T00:16:32;19.00;99.90
44509;DHT22;30214;52.246;14.408;2023-06-22T00:19:02;18.90;99.90
44509;DHT22;30214;52.246;14.408;2023-06-22T00:21:30;18.80;99.90
44509;DHT22;30214;52.246;14.408;2023-06-22T00:23:57;18.80;99.90
44509;DHT22;30214;52.246;14.408;2023-06-22T00:26:29;18.80;99.90
44509;DHT22;30214;52.246;14.408;2023-06-22T00:29:04;18.70;99.90
44509;DHT22;30214;52.246;14.408;2023-06-22T00:31:32;18.60;99.90
44509;DHT22;30214;52.246;14.408;2023-06-22T00:34:02;18.50;99.90
44509;DHT22;30214;52.246;14.408;2023-06-22T00:36:33;18.50;99.90
44509;DHT22;30214;52.246;14.408;2023-06-22T00:39:00;18.40;99.90
44509;DHT22;30214;52.246;14.408;2023-06-22T00:41:28;18.40;99.90
44509;DHT22;30214;52.246;14.408;2023-06-22T00:44:01;18.40;99.90
44509;DHT22;30214;52.246;14.408;2023-06-22T00:46:34;18.40;99.90
44509;DHT22;30214;52.246;14.408;2023-06-22T00:49:03;18.50;99.90
44509;DHT22;30214;52.246;14.408;2023-06-22T00:51:33;18.50;99.90
44509;DHT22;30214;52.246;14.408;2023-06-22T00:54:05;18.40;99.90
44509;DHT22;30214;52.246;14.408;2023-06-22T00:56:34;18.30;99.90
44509;DHT22;30214;52.246;14.408;2023-06-22T00:59:10;18.30;99.90
44509;DHT22;30214;52.246;14.408;2023-06-22T01:01:42;18.10;99.90
44509;DHT22;30214;52.246;14.408;2023-06-22T01:04:09;18.00;99.90
44509;DHT22;30214;52.246;14.408;2023-06-22T01:06:50;17.90;99.90
44509;DHT22;30214;52.246;14.408;2023-06-22T01:09:22;17.90;99.90
44509;DHT22;30214;52.246;14.408;2023-06-22T01:11:56;17.90;99.90
44509;DHT22;30214;52.246;14.408;2023-06-22T01:14:37;17.90;99.90
44509;DHT22;30214;52.246;14.408;2023-06-22T01:17:08;18.00;99.90
44509;DHT22;30214;52.246;14.408;2023-06-22T01:19:39;18.00;99.90
44509;DHT22;30214;52.246;14.408;2023-06-22T01:22:13;18.00;99.90
44509;DHT22;30214;52.246;14.408;2023-06-22T01:24:51;18.00;99.90
44509;DHT22;30214;52.246;14.408;2023-06-22T01:27:32;18.00;99.90
44509;DHT22;30214;52.246;14.408;2023-06-22T01:30:10;18.00;99.90
44509;DHT22;30214;52.246;14.408;2023-06-22T01:32:39;18.00;99.90
44509;DHT22;30214;52.246;14.408;2023-06-22T01:35:08;18.00;99.90
44509;DHT22;30214;52.246;14.408;2023-06-22T01:37:41;18.00;99.90
44509;DHT22;30214;52.246;14.408;2023-06-22T01:40:11;18.00;99.90
44509;DHT22;30214;52.246;14.408;2023-06-22T01:42:43;18.00;99.90
44509;DHT22;30214;52.246;14.408;2023-06-22T01:45:16;18.00;99.90
44509;DHT22;30214;52.246;14.408;2023-06-22T01:47:47;17.90;99.90
44509;DHT22;30214;52.246;14.408;2023-06-22T01:50:16;17.80;99.90
44509;DHT22;30214;52.246;14.408;2023-06-22T01:52:45;17.70;99.90
44509;DHT22;30214;52.246;14.408;2023-06-22T01:55:12;17.80;99.90
44509;DHT22;30214;52.246;14.408;2023-06-22T01:57:44;17.70;99.90
44509;DHT22;30214;52.246;14.408;2023-06-22T02:00:17;17.70;99.90
44509;DHT22;30214;52.246;14.408;2023-06-22T02:02:53;17.70;99.90
44509;DHT22;30214;52.246;14.408;2023-06-22T02:05:23;17.60;99.90
44509;DHT22;30214;52.246;14.408;2023-06-22T02:08:02;17.60;99.90
44509;DHT22;30214;52.246;14.408;2023-06-22T02:10:37;17.50;99.90
44509;DHT22;30214;52.246;14.408;2023-06-22T02:13:08;17.40;99.90
44509;DHT22;30214;52.246;14.408;2023-06-22T02:15:45;17.40;99.90
44509;DHT22;30214;52.246;14.408;2023-06-22T02:18:13;17.30;99.90
44509;DHT22;30214;52.246;14.408;2023-06-22T02:20:43;17.30;99.90
44509;DHT22;30214;52.246;14.408;2023-06-22T02:23:13;17.30;99.90
44509;DHT22;30214;52.246;14.408;2023-06-22T02:25:40;17.30;99.90
44509;DHT22;30214;52.246;14.408;2023-06-22T02:28:12;17.30;99.90
44509;DHT22;30214;52.246;14.408;2023-06-22T02:30:40;17.30;99.90
44509;DHT22;30214;52.246;14.408;2023-06-22T02:33:08;17.30;99.90
44509;DHT22;30214;52.246;14.408;2023-06-22T02:35:36;17.30;99.90
44509;DHT22;30214;52.246;14.408;2023-06-22T02:38:04;17.30;99.90
44509;DHT22;30214;52.246;14.408;2023-06-22T02:40:31;17.40;99.90
44509;DHT22;30214;52.246;14.408;2023-06-22T02:43:01;17.40;99.90
44509;DHT22;30214;52.246;14.408;2023-06-22T02:45:29;17.40;99.90
44509;DHT22;30214;52.246;14.408;2023-06-22T02:47:59;17.40;99.90
44509;DHT22;30214;52.246;14.408;2023-06-22T02:50:31;17.40;99.90
44509;DHT22;30214;52.246;14.408;2023-06-22T02:52:59;17.30;99.90
44509;DHT22;30214;52.246;14.408;2023-06-22T02:55:28;17.20;99.90
44509;DHT22;30214;52.246;14.408;2023-06-22T02:57:58;17.10;99.90
44509;DHT22;30214;52.246;14.408;2023-06-22T03:00:28;17.10;99.90
44509;DHT22;30214;52.246;14.408;2023-06-22T03:02:57;17.20;99.90
44509;DHT22;30214;52.246;14.408;2023-06-22T03:05:26;17.30;99.90
44509;DHT22;30214;52.246;14.408;2023-06-22T03:08:02;17.30;99.90
44509;DHT22;30214;52.246;14.408;2023-06-22T03:10:36;17.30;99.90
44509;DHT22;30214;52.246;14.408;2023-06-22T03:13:04;17.30;99.90
44509;DHT22;30214;52.246;14.408;2023-06-22T03:15:31;17.40;99.90
44509;DHT22;30214;52.246;14.408;2023-06-22T03:18:00;17.40;99.90
44509;DHT22;30214;52.246;14.408;2023-06-22T03:20:32;17.50;99.90
44509;DHT22;30214;52.246;14.408;2023-06-22T03:23:01;17.50;99.90
44509;DHT22;30214;52.246;14.408;2023-06-22T03:25:29;17.50;99.90
44509;DHT22;30214;52.246;14.408;2023-06-22T03:27:56;17.50;99.90
44509;DHT22;30214;52.246;14.408;2023-06-22T03:30:27;17.50;99.90
44509;DHT22;30214;52.246;14.408;2023-06-22T03:32:54;17.50;99.90
44509;DHT22;30214;52.246;14.408;2023-06-22T03:35:21;17.50;99.90
44509;DHT22;30214;52.246;14.408;2023-06-22T03:37:48;17.60;99.90
44509;DHT22;30214;52.246;14.408;2023-06-22T03:40:17;17.60;99.90
44509;DHT22;30214;52.246;14.408;2023-06-22T03:42:44;17.60;99.90
44509;DHT22;30214;52.246;14.408;2023-06-22T03:45:11;17.70;99.90
44509;DHT22;30214;52.246;14.408;2023-06-22T03:47:41;17.70;99.90
44509;DHT22;30214;52.246;14.408;2023-06-22T03:50:11;17.80;99.90
44509;DHT22;30214;52.246;14.408;2023-06-22T03:52:39;17.80;99.90
44509;DHT22;30214;52.246;14.408;2023-06-22T03:55:07;18.00;99.90
44509;DHT22;30214;52.246;14.408;2023-06-22T03:57:36;18.20;99.90
44509;DHT22;30214;52.246;14.408;2023-06-22T04:00:04;18.50;99.90
44509;DHT22;30214;52.246;14.408;2023-06-22T04:02:38;18.80;99.90
44509;DHT22;30214;52.246;14.408;2023-06-22T04:05:06;19.20;99.90
44509;DHT22;30214;52.246;14.408;2023-06-22T04:07:33;19.60;99.90
44509;DHT22;30214;52.246;14.408;2023-06-22T04:10:03;19.80;99.90
44509;DHT22;30214;52.246;14.408;2023-06-22T04:12:33;20.10;99.90
44509;DHT22;30214;52.246;14.408;2023-06-22T04:15:09;20.20;99.90
44509;DHT22;30214;52.246;14.408;2023-06-22T04:17:38;20.40;99.90
44509;DHT22;30214;52.246;14.408;2023-06-22T04:20:07;20.40;99.90
44509;DHT22;30214;52.246;14.408;2023-06-22T04:22:34;20.50;99.90
44509;DHT22;30214;52.246;14.408;2023-06-22T04:25:02;20.30;99.90
44509;DHT22;30214;52.246;14.408;2023-06-22T04:27:29;20.20;99.90
44509;DHT22;30214;52.246;14.408;2023-06-22T04:29:57;20.10;99.90
44509;DHT22;30214;52.246;14.408;2023-06-22T04:32:28;20.40;99.90
44509;DHT22;30214;52.246;14.408;2023-06-22T04:34:55;20.70;99.90
44509;DHT22;30214;52.246;14.408;2023-06-22T04:37:22;21.10;99.90
44509;DHT22;30214;52.246;14.408;2023-06-22T04:39:50;21.50;99.90
44509;DHT22;30214;52.246;14.408;2023-06-22T04:42:16;21.80;99.90
44509;DHT22;30214;52.246;14.408;2023-06-22T04:44:54;22.00;99.90
44509;DHT22;30214;52.246;14.408;2023-06-22T04:47:22;22.10;99.90
44509;DHT22;30214;52.246;14.408;2023-06-22T04:49:51;22.20;99.90
44509;DHT22;30214;52.246;14.408;2023-06-22T04:52:18;22.00;99.90
44509;DHT22;30214;52.246;14.408;2023-06-22T04:54:55;21.50;99.90
44509;DHT22;30214;52.246;14.408;2023-06-22T04:57:25;21.40;99.90
44509;DHT22;30214;52.246;14.408;2023-06-22T04:59:58;21.40;99.90
44509;DHT22;30214;52.246;14.408;2023-06-22T05:02:37;21.70;99.90
44509;DHT22;30214;52.246;14.408;2023-06-22T05:05:06;22.00;99.90
44509;DHT22;30214;52.246;14.408;2023-06-22T05:07:34;22.10;99.90
44509;DHT22;30214;52.246;14.408;2023-06-22T05:10:02;22.30;99.90
44509;DHT22;30214;52.246;14.408;2023-06-22T05:12:30;22.50;99.90
44509;DHT22;30214;52.246;14.408;2023-06-22T05:14:58;22.40;99.90
44509;DHT22;30214;52.246;14.408;2023-06-22T05:17:25;22.50;99.90
44509;DHT22;30214;52.246;14.408;2023-06-22T05:19:52;22.60;99.90
44509;DHT22;30214;52.246;14.408;2023-06-22T05:22:21;22.80;99.90
44509;DHT22;30214;52.246;14.408;2023-06-22T05:24:47;23.10;99.90
44509;DHT22;30214;52.246;14.408;2023-06-22T05:27:17;23.40;99.90
44509;DHT22;30214;52.246;14.408;2023-06-22T05:29:44;23.30;99.90
44509;DHT22;30214;52.246;14.408;2023-06-22T05:32:11;23.20;99.90
44509;DHT22;30214;52.246;14.408;2023-06-22T05:34:38;23.20;99.90
44509;DHT22;30214;52.246;14.408;2023-06-22T05:37:06;23.20;99.90
44509;DHT22;30214;52.246;14.408;2023-06-22T05:39:36;23.20;99.90
44509;DHT22;30214;52.246;14.408;2023-06-22T05:42:05;23.30;99.90
44509;DHT22;30214;52.246;14.408;2023-06-22T05:44:32;23.40;99.90
44509;DHT22;30214;52.246;14.408;2023-06-22T05:46:59;23.30;99.90
44509;DHT22;30214;52.246;14.408;2023-06-22T05:49:26;23.10;99.90
44509;DHT22;30214;52.246;14.408;2023-06-22T05:51:58;23.20;99.90
44509;DHT22;30214;52.246;14.408;2023-06-22T05:54:26;23.20;99.90
44509;DHT22;30214;52.246;14.408;2023-06-22T05:56:55;23.20;99.90
44509;DHT22;30214;52.246;14.408;2023-06-22T05:59:23;23.20;99.90
44509;DHT22;30214;52.246;14.408;2023-06-22T06:01:50;23.40;99.90
44509;DHT22;30214;52.246;14.408;2023-06-22T06:04:21;23.50;99.90
44509;DHT22;30214;52.246;14.408;2023-06-22T06:06:49;23.90;99.90
44509;DHT22;30214;52.246;14.408;2023-06-22T06:09:16;24.20;99.10
44509;DHT22;30214;52.246;14.408;2023-06-22T06:11:44;24.20;99.20
44509;DHT22;30214;52.246;14.408;2023-06-22T06:14:12;24.20;99.20
44509;DHT22;30214;52.246;14.408;2023-06-22T06:16:43;24.10;97.60
44509;DHT22;30214;52.246;14.408;2023-06-22T06:19:10;24.10;97.60
44509;DHT22;30214;52.246;14.408;2023-06-22T06:21:38;24.20;99.20
44509;DHT22;30214;52.246;14.408;2023-06-22T06:24:06;24.50;99.00
44509;DHT22;30214;52.246;14.408;2023-06-22T06:26:33;24.80;97.80
44509;DHT22;30214;52.246;14.408;2023-06-22T06:29:04;25.00;98.10
44509;DHT22;30214;52.246;14.408;2023-06-22T06:31:33;24.80;95.90
44509;DHT22;30214;52.246;14.408;2023-06-22T06:34:00;25.00;96.90
44509;DHT22;30214;52.246;14.408;2023-06-22T06:36:28;25.00;94.00
44509;DHT22;30214;52.246;14.408;2023-06-22T06:38:55;25.20;96.20
44509;DHT22;30214;52.246;14.408;2023-06-22T06:41:23;25.10;95.20
44509;DHT22;30214;52.246;14.408;2023-06-22T06:43:53;24.90;94.60
44509;DHT22;30214;52.246;14.408;2023-06-22T06:46:21;24.90;94.30
44509;DHT22;30214;52.246;14.408;2023-06-22T06:48:50;25.00;93.80
44509;DHT22;30214;52.246;14.408;2023-06-22T06:51:17;25.10;93.70
44509;DHT22;30214;52.246;14.408;2023-06-22T06:53:45;25.10;91.70
44509;DHT22;30214;52.246;14.408;2023-06-22T06:56:12;25.20;92.90
44509;DHT22;30214;52.246;14.408;2023-06-22T06:58:41;25.20;91.50
44509;DHT22;30214;52.246;14.408;2023-06-22T07:01:11;25.20;93.30
44509;DHT22;30214;52.246;14.408;2023-06-22T07:03:38;25.50;92.10
44509;DHT22;30214;52.246;14.408;2023-06-22T07:06:08;25.50;91.50
44509;DHT22;30214;52.246;14.408;2023-06-22T07:08:36;25.40;92.10
44509;DHT22;30214;52.246;14.408;2023-06-22T07:11:05;25.30;90.70
44509;DHT22;30214;52.246;14.408;2023-06-22T07:13:33;25.40;91.50
44509;DHT22;30214;52.246;14.408;2023-06-22T07:16:00;25.50;90.00
44509;DHT22;30214;52.246;14.408;2023-06-22T07:18:29;25.40;88.80
44509;DHT22;30214;52.246;14.408;2023-06-22T07:20:56;25.40;85.90
44509;DHT22;30214;52.246;14.408;2023-06-22T07:23:28;25.60;89.50
44509;DHT22;30214;52.246;14.408;2023-06-22T07:25:57;25.60;87.50
44509;DHT22;30214;52.246;14.408;2023-06-22T07:28:28;25.70;89.40
44509;DHT22;30214;52.246;14.408;2023-06-22T07:30:57;25.70;90.00
44509;DHT22;30214;52.246;14.408;2023-06-22T07:33:24;25.70;91.10
44509;DHT22;30214;52.246;14.408;2023-06-22T07:35:51;25.60;89.30
44509;DHT22;30214;52.246;14.408;2023-06-22T07:38:21;25.60;91.00
44509;DHT22;30214;52.246;14.408;2023-06-22T07:40:50;25.60;90.90
44509;DHT22;30214;52.246;14.408;2023-06-22T07:43:20;25.70;91.20
44509;DHT22;30214;52.246;14.408;2023-06-22T07:45:50;25.80;89.70
44509;DHT22;30214;52.246;14.408;2023-06-22T07:48:20;25.70;90.30
44509;DHT22;30214;52.246;14.408;2023-06-22T07:50:48;25.80;89.40
44509;DHT22;30214;52.246;14.408;2023-06-22T07:53:15;25.80;91.10
44509;DHT22;30214;52.246;14.408;2023-06-22T07:56:05;26.10;90.70
44509;DHT22;30214;52.246;14.408;2023-06-22T07:58:34;25.90;90.40
44509;DHT22;30214;52.246;14.408;2023-06-22T08:01:40;26.20;86.90
44509;DHT22;30214;52.246;14.408;2023-06-22T08:04:07;26.30;90.00
44509;DHT22;30214;52.246;14.408;2023-06-22T08:10:23;26.30;84.60
44509;DHT22;30214;52.246;14.408;2023-06-22T08:20:40;26.30;76.30
44509;DHT22;30214;52.246;14.408;2023-06-22T08:26:21;27.00;82.20
44509;DHT22;30214;52.246;14.408;2023-06-22T08:28:51;27.20;80.00
44509;DHT22;30214;52.246;14.408;2023-06-22T08:31:18;27.30;78.30
44509;DHT22;30214;52.246;14.408;2023-06-22T08:33:45;27.30;76.30
44509;DHT22;30214;52.246;14.408;2023-06-22T08:48:34;28.00;72.50
44509;DHT22;30214;52.246;14.408;2023-06-22T08:54:04;28.10;71.50
44509;DHT22;30214;52.246;14.408;2023-06-22T09:00:51;27.30;71.90
44509;DHT22;30214;52.246;14.408;2023-06-22T09:07:26;27.50;69.10
44509;DHT22;30214;52.246;14.408;2023-06-22T09:13:48;27.30;70.50
44509;DHT22;30214;52.246;14.408;2023-06-22T09:20:05;27.20;68.20
44509;DHT22;30214;52.246;14.408;2023-06-22T09:22:35;27.20;71.80
44509;DHT22;30214;52.246;14.408;2023-06-22T09:25:08;27.20;69.50
44509;DHT22;30214;52.246;14.408;2023-06-22T10:09:50;27.40;66.20
44509;DHT22;30214;52.246;14.408;2023-06-22T10:12:47;27.30;67.30
44509;DHT22;30214;52.246;14.408;2023-06-22T10:15:17;27.30;69.60
44509;DHT22;30214;52.246;14.408;2023-06-22T10:17:44;27.40;68.70
44509;DHT22;30214;52.246;14.408;2023-06-22T12:26:59;29.00;64.30
44509;DHT22;30214;52.246;14.408;2023-06-22T12:29:33;28.40;64.60
44509;DHT22;30214;52.246;14.408;2023-06-22T12:32:03;28.40;63.90
44509;DHT22;30214;52.246;14.408;2023-06-22T12:38:39;28.70;63.40
44509;DHT22;30214;52.246;14.408;2023-06-22T12:41:09;28.80;62.10
44509;DHT22;30214;52.246;14.408;2023-06-22T12:43:51;28.70;63.10
44509;DHT22;30214;52.246;14.408;2023-06-22T12:46:18;28.70;63.70
44509;DHT22;30214;52.246;14.408;2023-06-22T12:48:46;29.10;63.90
44509;DHT22;30214;52.246;14.408;2023-06-22T12:51:23;29.40;65.00
44509;DHT22;30214;52.246;14.408;2023-06-22T12:57:12;29.60;61.10
44509;DHT22;30214;52.246;14.408;2023-06-22T12:59:47;29.30;62.60
44509;DHT22;30214;52.246;14.408;2023-06-22T13:02:17;29.50;62.10
44509;DHT22;30214;52.246;14.408;2023-06-22T13:05:15;29.70;65.00
44509;DHT22;30214;52.246;14.408;2023-06-22T13:07:42;29.50;61.80
44509;DHT22;30214;52.246;14.408;2023-06-22T13:10:11;29.20;64.40
44509;DHT22;30214;52.246;14.408;2023-06-22T13:12:38;29.20;62.10
44509;DHT22;30214;52.246;14.408;2023-06-22T13:15:10;29.20;64.90
44509;DHT22;30214;52.246;14.408;2023-06-22T13:17:39;29.10;62.90
44509;DHT22;30214;52.246;14.408;2023-06-22T13:20:10;29.10;63.70
44509;DHT22;30214;52.246;14.408;2023-06-22T13:22:38;29.10;62.60
44509;DHT22;30214;52.246;14.408;2023-06-22T13:25:11;29.40;62.10
44509;DHT22;30214;52.246;14.408;2023-06-22T13:27:40;29.70;60.20
44509;DHT22;30214;52.246;14.408;2023-06-22T13:30:16;29.60;62.30
44509;DHT22;30214;52.246;14.408;2023-06-22T13:32:48;29.30;61.70
44509;DHT22;30214;52.246;14.408;2023-06-22T13:35:22;29.40;61.00
44509;DHT22;30214;52.246;14.408;2023-06-22T13:37:57;29.50;61.20
44509;DHT22;30214;52.246;14.408;2023-06-22T13:40:32;29.40;62.10
44509;DHT22;30214;52.246;14.408;2023-06-22T13:43:03;29.50;62.60
44509;DHT22;30214;52.246;14.408;2023-06-22T13:45:32;29.50;61.30
44509;DHT22;30214;52.246;14.408;2023-06-22T13:48:03;29.50;61.90
44509;DHT22;30214;52.246;14.408;2023-06-22T13:50:36;29.40;62.10
44509;DHT22;30214;52.246;14.408;2023-06-22T13:53:03;29.30;60.90
44509;DHT22;30214;52.246;14.408;2023-06-22T13:55:31;29.10;60.60
44509;DHT22;30214;52.246;14.408;2023-06-22T13:57:59;29.20;61.60
44509;DHT22;30214;52.246;14.408;2023-06-22T14:00:36;29.40;60.90
44509;DHT22;30214;52.246;14.408;2023-06-22T14:03:08;29.80;60.60
44509;DHT22;30214;52.246;14.408;2023-06-22T14:05:35;29.60;59.90
44509;DHT22;30214;52.246;14.408;2023-06-22T14:08:04;29.50;61.40
44509;DHT22;30214;52.246;14.408;2023-06-22T14:10:36;29.50;64.00
44509;DHT22;30214;52.246;14.408;2023-06-22T14:13:05;29.30;61.90
44509;DHT22;30214;52.246;14.408;2023-06-22T14:15:42;29.20;60.80
44509;DHT22;30214;52.246;14.408;2023-06-22T14:18:12;29.10;60.50
44509;DHT22;30214;52.246;14.408;2023-06-22T14:20:51;29.10;62.80
44509;DHT22;30214;52.246;14.408;2023-06-22T14:23:22;29.20;62.70
44509;DHT22;30214;52.246;14.408;2023-06-22T14:25:49;29.50;61.80
44509;DHT22;30214;52.246;14.408;2023-06-22T14:28:22;29.50;61.90
44509;DHT22;30214;52.246;14.408;2023-06-22T14:30:54;29.20;61.20
44509;DHT22;30214;52.246;14.408;2023-06-22T14:33:22;29.00;62.50
44509;DHT22;30214;52.246;14.408;2023-06-22T14:35:55;29.00;59.70
44509;DHT22;30214;52.246;14.408;2023-06-22T14:38:27;29.20;61.70
44509;DHT22;30214;52.246;14.408;2023-06-22T14:41:02;29.30;63.90
44509;DHT22;30214;52.246;14.408;2023-06-22T14:43:37;29.30;63.50
44509;DHT22;30214;52.246;14.408;2023-06-22T14:46:12;29.30;62.40
44509;DHT22;30214;52.246;14.408;2023-06-22T14:48:48;29.20;63.50
44509;DHT22;30214;52.246;14.408;2023-06-22T14:51:20;29.30;62.50
44509;DHT22;30214;52.246;14.408;2023-06-22T14:53:51;29.30;61.90
44509;DHT22;30214;52.246;14.408;2023-06-22T14:56:19;29.20;62.80
44509;DHT22;30214;52.246;14.408;2023-06-22T14:58:53;29.20;62.90
44509;DHT22;30214;52.246;14.408;2023-06-22T15:01:26;29.10;59.90
44509;DHT22;30214;52.246;14.408;2023-06-22T15:04:00;29.10;63.40
44509;DHT22;30214;52.246;14.408;2023-06-22T15:06:33;29.00;61.90
44509;DHT22;30214;52.246;14.408;2023-06-22T15:09:24;29.00;64.20
44509;DHT22;30214;52.246;14.408;2023-06-22T15:12:00;29.20;62.90
44509;DHT22;30214;52.246;14.408;2023-06-22T15:14:38;29.20;62.90
44509;DHT22;30214;52.246;14.408;2023-06-22T15:17:10;29.20;64.00
44509;DHT22;30214;52.246;14.408;2023-06-22T15:20:15;29.10;62.40
44509;DHT22;30214;52.246;14.408;2023-06-22T15:23:09;28.90;63.00
44509;DHT22;30214;52.246;14.408;2023-06-22T15:25:39;28.90;63.20
44509;DHT22;30214;52.246;14.408;2023-06-22T15:28:13;28.80;64.50
44509;DHT22;30214;52.246;14.408;2023-06-22T15:30:41;28.80;64.80
44509;DHT22;30214;52.246;14.408;2023-06-22T15:33:09;29.00;64.50
44509;DHT22;30214;52.246;14.408;2023-06-22T15:35:37;29.10;63.60
44509;DHT22;30214;52.246;14.408;2023-06-22T15:38:07;29.10;65.70
44509;DHT22;30214;52.246;14.408;2023-06-22T15:40:38;29.10;62.80
44509;DHT22;30214;52.246;14.408;2023-06-22T15:43:14;29.00;62.50
44509;DHT22;30214;52.246;14.408;2023-06-22T15:45:48;28.90;62.10
44509;DHT22;30214;52.246;14.408;2023-06-22T15:48:21;28.90;63.70
44509;DHT22;30214;52.246;14.408;2023-06-22T15:51:04;28.90;62.40
44509;DHT22;30214;52.246;14.408;2023-06-22T15:53:33;28.90;60.70
44509;DHT22;30214;52.246;14.408;2023-06-22T15:56:07;28.90;62.80
44509;DHT22;30214;52.246;14.408;2023-06-22T15:58:44;29.00;63.70
44509;DHT22;30214;52.246;14.408;2023-06-22T16:01:19;29.00;62.20
44509;DHT22;30214;52.246;14.408;2023-06-22T16:03:52;29.00;61.00
44509;DHT22;30214;52.246;14.408;2023-06-22T16:06:21;28.90;61.10
44509;DHT22;30214;52.246;14.408;2023-06-22T16:08:52;28.90;60.60
44509;DHT22;30214;52.246;14.408;2023-06-22T16:11:29;28.90;62.40
44509;DHT22;30214;52.246;14.408;2023-06-22T16:14:44;28.90;60.20
44509;DHT22;30214;52.246;14.408;2023-06-22T16:24:49;28.80;61.00
44509;DHT22;30214;52.246;14.408;2023-06-22T16:27:22;28.70;61.10
44509;DHT22;30214;52.246;14.408;2023-06-22T16:30:03;28.70;62.20
44509;DHT22;30214;52.246;14.408;2023-06-22T16:32:32;28.80;62.40
44509;DHT22;30214;52.246;14.408;2023-06-22T16:35:01;28.90;62.80
44509;DHT22;30214;52.246;14.408;2023-06-22T16:37:36;28.80;62.20
44509;DHT22;30214;52.246;14.408;2023-06-22T16:40:15;28.80;61.50
44509;DHT22;30214;52.246;14.408;2023-06-22T16:42:45;28.60;61.20
44509;DHT22;30214;52.246;14.408;2023-06-22T16:45:20;28.50;61.10
44509;DHT22;30214;52.246;14.408;2023-06-22T16:47:53;28.40;61.80
44509;DHT22;30214;52.246;14.408;2023-06-22T16:50:21;28.40;62.90
44509;DHT22;30214;52.246;14.408;2023-06-22T16:53:01;28.40;62.60
44509;DHT22;30214;52.246;14.408;2023-06-22T16:55:38;28.40;60.90
44509;DHT22;30214;52.246;14.408;2023-06-22T16:58:07;28.30;63.90
44509;DHT22;30214;52.246;14.408;2023-06-22T17:00:38;28.30;62.30
44509;DHT22;30214;52.246;14.408;2023-06-22T17:03:08;28.30;63.60
44509;DHT22;30214;52.246;14.408;2023-06-22T17:05:41;28.40;62.90
44509;DHT22;30214;52.246;14.408;2023-06-22T17:08:19;28.20;62.90
44509;DHT22;30214;52.246;14.408;2023-06-22T17:14:21;28.10;63.50
44509;DHT22;30214;52.246;14.408;2023-06-22T17:16:49;27.90;63.50
44509;DHT22;30214;52.246;14.408;2023-06-22T17:19:17;27.90;64.70
44509;DHT22;30214;52.246;14.408;2023-06-22T17:21:48;27.90;64.70
44509;DHT22;30214;52.246;14.408;2023-06-22T17:27:34;28.00;63.30
44509;DHT22;30214;52.246;14.408;2023-06-22T17:30:07;28.00;63.10
44509;DHT22;30214;52.246;14.408;2023-06-22T17:32:35;27.90;63.20
44509;DHT22;30214;52.246;14.408;2023-06-22T17:35:02;27.80;63.80
44509;DHT22;30214;52.246;14.408;2023-06-22T17:37:47;27.60;63.50
44509;DHT22;30214;52.246;14.408;2023-06-22T17:40:15;27.50;65.10
44509;DHT22;30214;52.246;14.408;2023-06-22T17:42:43;27.50;64.60
44509;DHT22;30214;52.246;14.408;2023-06-22T17:45:20;27.40;65.40
44509;DHT22;30214;52.246;14.408;2023-06-22T17:47:48;27.40;65.00
44509;DHT22;30214;52.246;14.408;2023-06-22T17:50:21;27.30;65.90
44509;DHT22;30214;52.246;14.408;2023-06-22T17:52:52;27.20;65.90
44509;DHT22;30214;52.246;14.408;2023-06-22T17:55:24;27.20;65.80
44509;DHT22;30214;52.246;14.408;2023-06-22T17:57:56;27.10;66.80
44509;DHT22;30214;52.246;14.408;2023-06-22T18:00:26;27.10;66.40
44509;DHT22;30214;52.246;14.408;2023-06-22T18:02:58;27.00;66.90
44509;DHT22;30214;52.246;14.408;2023-06-22T18:05:30;27.00;66.60
44509;DHT22;30214;52.246;14.408;2023-06-22T18:07:58;27.00;67.20
44509;DHT22;30214;52.246;14.408;2023-06-22T18:10:28;26.90;67.50
44509;DHT22;30214;52.246;14.408;2023-06-22T18:13:02;26.80;67.90
44509;DHT22;30214;52.246;14.408;2023-06-22T18:15:37;26.80;68.00
44509;DHT22;30214;52.246;14.408;2023-06-22T18:18:08;26.80;68.20
44509;DHT22;30214;52.246;14.408;2023-06-22T18:20:42;26.70;68.70
44509;DHT22;30214;52.246;14.408;2023-06-22T18:23:11;26.60;69.00
44509;DHT22;30214;52.246;14.408;2023-06-22T18:25:42;26.60;69.30
44509;DHT22;30214;52.246;14.408;2023-06-22T18:28:44;26.50;69.60
44509;DHT22;30214;52.246;14.408;2023-06-22T18:31:16;26.50;69.10
44509;DHT22;30214;52.246;14.408;2023-06-22T18:33:49;26.30;70.50
44509;DHT22;30214;52.246;14.408;2023-06-22T18:36:24;26.20;69.80
44509;DHT22;30214;52.246;14.408;2023-06-22T18:38:53;26.20;69.90
44509;DHT22;30214;52.246;14.408;2023-06-22T18:41:33;26.10;69.70
44509;DHT22;30214;52.246;14.408;2023-06-22T18:44:01;26.10;69.50
44509;DHT22;30214;52.246;14.408;2023-06-22T18:46:31;26.10;69.40
44509;DHT22;30214;52.246;14.408;2023-06-22T18:49:12;26.10;69.00
44509;DHT22;30214;52.246;14.408;2023-06-22T18:51:53;26.10;69.20
44509;DHT22;30214;52.246;14.408;2023-06-22T18:54:23;26.00;68.40
44509;DHT22;30214;52.246;14.408;2023-06-22T18:56:55;26.00;68.50
44509;DHT22;30214;52.246;14.408;2023-06-22T18:59:44;26.00;68.70
44509;DHT22;30214;52.246;14.408;2023-06-22T19:02:15;26.00;68.80
44509;DHT22;30214;52.246;14.408;2023-06-22T19:04:43;25.90;70.20
44509;DHT22;30214;52.246;14.408;2023-06-22T19:07:11;25.90;68.90
44509;DHT22;30214;52.246;14.408;2023-06-22T19:09:39;25.80;69.60
44509;DHT22;30214;52.246;14.408;2023-06-22T19:12:23;25.80;69.90
44509;DHT22;30214;52.246;14.408;2023-06-22T19:15:15;25.70;69.70
44509;DHT22;30214;52.246;14.408;2023-06-22T19:17:46;25.70;70.20
44509;DHT22;30214;52.246;14.408;2023-06-22T19:20:18;25.50;70.50
44509;DHT22;30214;52.246;14.408;2023-06-22T19:22:47;25.50;70.20
44509;DHT22;30214;52.246;14.408;2023-06-22T19:25:19;25.60;70.50
44509;DHT22;30214;52.246;14.408;2023-06-22T19:27:47;25.60;70.00
44509;DHT22;30214;52.246;14.408;2023-06-22T19:30:17;25.50;70.20
44509;DHT22;30214;52.246;14.408;2023-06-22T19:32:48;25.40;70.70
44509;DHT22;30214;52.246;14.408;2023-06-22T19:35:17;25.50;70.80
44509;DHT22;30214;52.246;14.408;2023-06-22T19:37:45;25.40;70.30